Time;durP1;ratioP1;P1;durP2;ratioP2;P2;SDS_P1;SDS_P2;PMS_P1;PMS_P2;Temp;Humidity;BMP_temperature;BMP_pressure;BME280_temperature;BME280_humidity;BME280_pressure;Samples;Min_cycle;Max_cycle;Signal;HPM_P1;HPM_P2
2023/12/10 00:13:12;;;;;;;86.63;44.83;;;0.50;99.90;;;;;;5941399;23;20201;-84
2023/12/10 00:33:42;;;;;;;84.13;44.40;;;0.50;99.90;;;;;;5795803;24;20599;-85
2023/12/10 00:54:06;;;;;;;74.63;39.90;;;0.50;99.90;;;;;;5685258;24;20511;-85
2023/12/10 01:39:40;;;;;;;66.53;33.03;;;0.50;99.90;;;;;;5771807;24;20207;-82
2023/12/10 02:09:26;;;;;;;60.97;31.47;;;0.40;99.90;;;;;;5896569;23;20551;-83
2023/12/10 02:35:30;;;;;;;52.80;28.23;;;0.30;99.90;;;;;;5841254;24;20502;-85
2023/12/10 02:39:51;;;;;;;55.60;29.00;;;0.30;99.90;;;;;;5758693;24;20735;-83
2023/12/10 03:00:29;;;;;;;46.10;24.67;;;0.40;99.90;;;;;;5690838;24;20334;-83
2023/12/10 03:20:45;;;;;;;45.27;23.70;;;0.10;99.90;;;;;;5869056;24;20253;-84
2023/12/10 03:41:25;;;;;;;40.10;23.47;;;0.20;99.90;;;;;;5890145;23;20279;-84
2023/12/10 05:12:30;;;;;;;36.03;18.37;;;0.00;99.90;;;;;;5892177;24;20228;-85
2023/12/10 05:42:24;;;;;;;33.63;20.23;;;-0.20;99.90;;;;;;5900230;23;20593;-85
2023/12/10 06:38:55;;;;;;;37.63;19.23;;;-0.70;99.90;;;;;;5857116;24;20237;-82
2023/12/10 06:58:52;;;;;;;37.83;21.07;;;-0.70;99.90;;;;;;5748332;24;20178;-84
2023/12/10 07:19:18;;;;;;;39.17;20.00;;;-0.50;99.90;;;;;;5817298;24;20271;-86
2023/12/10 07:44:43;;;;;;;50.60;25.10;;;-0.20;99.90;;;;;;5891338;24;20299;-85
2023/12/10 08:24:40;;;;;;;46.73;24.40;;;-0.10;99.90;;;;;;5941708;23;20694;-84
2023/12/10 08:50:34;;;;;;;50.83;26.20;;;0.10;99.90;;;;;;6120181;23;20205;-85
2023/12/10 09:00:21;;;;;;;50.53;27.23;;;0.20;99.90;;;;;;6101197;23;21524;-87
2023/12/10 09:26:01;;;;;;;46.13;25.60;;;0.70;99.90;;;;;;5980349;23;20193;-85
2023/12/10 09:56:28;;;;;;;48.30;24.43;;;0.80;99.90;;;;;;5847519;24;20223;-86
2023/12/10 10:21:50;;;;;;;46.67;24.47;;;1.00;99.90;;;;;;5850344;24;20216;-86
2023/12/10 10:41:46;;;;;;;44.27;25.07;;;1.10;99.90;;;;;;5770129;24;20185;-88
2023/12/10 11:07:24;;;;;;;48.00;25.60;;;1.10;99.90;;;;;;5796984;24;20263;-87
2023/12/10 11:32:33;;;;;;;44.00;24.07;;;1.10;99.90;;;;;;5800251;24;20477;-86
2023/12/10 12:13:24;;;;;;;46.83;23.70;;;1.10;99.90;;;;;;5887503;24;20318;-87
2023/12/10 12:43:54;;;;;;;38.90;21.73;;;1.00;99.90;;;;;;5919894;23;20258;-87
2023/12/10 13:19:29;;;;;;;36.90;21.63;;;0.90;99.90;;;;;;6061738;23;20207;-89
2023/12/10 13:23:50;;;;;;;42.50;21.77;;;1.20;99.90;;;;;;5998420;23;20275;-89
2023/12/10 13:49:35;;;;;;;41.33;23.07;;;0.90;99.90;;;;;;5754101;24;20248;-86
2023/12/10 14:20:12;;;;;;;45.47;24.07;;;0.70;99.90;;;;;;5917020;24;20255;-88
2023/12/10 14:45:25;;;;;;;51.80;26.93;;;0.30;99.90;;;;;;5902005;24;20671;-86
2023/12/10 15:00:55;;;;;;;52.93;28.70;;;0.40;99.90;;;;;;5861663;24;20186;-86
2023/12/10 15:05:17;;;;;;;55.63;28.93;;;0.30;99.90;;;;;;5803422;24;20528;-88
2023/12/10 15:30:45;;;;;;;53.10;30.30;;;0.30;99.90;;;;;;6066704;23;20222;31
2023/12/10 15:55:56;;;;;;;56.97;29.27;;;0.30;99.90;;;;;;5982410;23;21085;-90
2023/12/10 16:31:56;;;;;;;62.43;33.40;;;0.40;99.90;;;;;;5957486;23;20711;-87
2023/12/10 17:01:57;;;;;;;63.80;32.87;;;0.50;99.90;;;;;;5827724;24;20479;-87
2023/12/10 17:22:41;;;;;;;60.97;34.63;;;0.60;99.90;;;;;;5812302;24;20253;-83
2023/12/10 17:52:59;;;;;;;70.17;37.10;;;0.60;99.90;;;;;;5753220;24;20198;-85
2023/12/10 18:18:25;;;;;;;70.70;36.67;;;0.80;99.90;;;;;;5782802;24;20523;-87
2023/12/10 19:08:48;;;;;;;67.37;35.93;;;1.10;99.90;;;;;;5691267;24;20734;-84
2023/12/10 19:29:33;;;;;;;69.50;36.20;;;1.20;99.90;;;;;;5944880;23;20215;-83
2023/12/10 19:49:54;;;;;;;74.33;37.77;;;1.20;99.90;;;;;;5845284;24;20295;-83
2023/12/10 20:19:55;;;;;;;75.60;39.97;;;1.30;99.90;;;;;;5875437;24;20263;-86
2023/12/10 20:40:40;;;;;;;67.47;36.40;;;1.40;99.90;;;;;;5797361;24;20166;-86
2023/12/10 20:45:05;;;;;;;75.33;39.20;;;1.50;99.90;;;;;;5704510;24;20819;-86
2023/12/10 21:56:37;;;;;;;65.73;36.97;;;1.70;99.90;;;;;;6054641;23;20147;-84
2023/12/10 22:21:59;;;;;;;74.10;37.20;;;1.80;99.90;;;;;;5929425;23;20241;-85
2023/12/10 22:57:29;;;;;;;57.83;30.90;;;1.90;99.90;;;;;;6037572;23;20174;-84
2023/12/10 23:37:59;;;;;;;59.23;32.50;;;2.10;99.90;;;;;;6115546;23;20634;-84
